Aviation Digital Data Service (ADDS)

Output produced by METARs form (2337 UTC 02 September 2014)
found at http://www.aviationweather.gov/adds/metars/
 
METAR text: KCCU 022316Z AUTO 27021KT 10SM SCT065 16/M03 A3052 RMK AO2
Conditions at: KCCU (RED CLIFF PASS , CO, US) observed 2316 UTC 02 September 2014
Temperature: 16.0°C (61°F)
Dewpoint: -3.0°C (27°F) [RH = 27%]
Pressure (altimeter): 30.52 inches Hg (1033.6 mb)
Winds: from the W (270 degrees) at 24 MPH (21 knots; 10.9 m/s)
Visibility: 10 or more miles (16+ km)
Ceiling: at least 12,000 feet AGL
Clouds: scattered clouds at 6500 feet AGL
Weather: automated observation with no human augmentation;
there may or may not be significant weather present at this time